x

New York Harbor Entrance - 15 Nm Se Of Breezy Point , Ny (44065) Wave Buoy

6:50am - Tue 21st Apr 2015 All times are EDT. -4 hours from GMT.

  • Sig Wave height 7.2ft
  • Swell Direction
  • Peak Period 9s
  • Average Period 7s
  • Wind
    7mph
  • Sea Temp 44°f
  • Air Temp 48°f
  • Sea Pressure 1001.2mb
  • New York Harbor Entrance - 15 Nm Se Of Breezy Point , Ny
  • New York Harbor Entrance - 15 Nm Se Of Breezy Point , Ny

More Historic Weather Station data

Upgrade to MSW Pro to gain access to the past 30 days of data for over 8000 Wavebouys and Weather Stations around the globe.

Join Pro

Comparision Forecast

View Surf forecast
   
Tue 04/21 6:50am 7ft 9s 7s 7
mph
1001.2mb 44f 48f
5:50am 7ft 9s 7s 4 7 mph 1001.4mb 44f 47f
4:50am 7ft 9s 7s 4 7 mph 1001mb 44f 48f
3:50am 6.5ft 10s 7s 4 7 mph 1001.3mb 44f 49f
2:50am 7.5ft 11s 7s 7 9 mph 999.9mb 44f 47f
1:50am 7.5ft 11s 7s 18 20 mph 1000.7mb 44f 49f
12:50am 7ft 11s 7s 16 20 mph 1000.5mb 44f 48f
Mon 04/20 11:50pm 8ft 11s 7s 9 13 mph 1001.9mb 44f 47f
10:50pm 8ft 10s 7s 7 9 mph 1002.4mb 44f 47f
9:50pm 9ft 10s 7s 7 9 mph 1002.9mb 44f 47f
8:50pm 10ft 10s 7s 7 9 mph 1003.4mb 44f 48f
7:50pm 10ft 10s 7s 7 9 mph 1003.3mb 44f 47f
6:50pm 10.5ft 9s 7s 13 16 mph 1002.6mb 44f 49f
5:50pm 9.5ft 9s 7s 11 13 mph 1004.4mb 44f 48f
4:50pm 8.5ft 8s 7s 11 16 mph 1003.8mb 44f 47f
3:50pm 8ft 8s 6s 13 16 mph 1003.7mb 44f 48f
2:50pm 7ft 7s 6s 13 16 mph 1004.1mb 44f 49f
1:50pm 8ft 8s 6s 16 22 mph 1004.9mb 44f 52f
12:50pm 9ft 7s 6s 20 25 mph 1005.8mb 44f 54f
11:50am 8ft 7s 6s 29 36 mph 1005.7mb 44f 52f
10:50am 8.5ft 7s 6s 27 31 mph 1006mb 44f 49f
9:50am 8ft 7s 6s 29 36 mph 1006.8mb 44f 49f
8:50am 8ft 6s 5s 29 36 mph 1008.9mb 44f 48f
7:50am 7ft 6s 5s 31 38 mph 1010.4mb 44f 48f
6:50am 6ft 6s 5s 29 36 mph 1011.4mb 44f 47f
5:50am 6.5ft 6s 5s 31 38 mph 1012.5mb 45f 47f
4:50am 6ft 6s 5s 27 34 mph 1014mb 45f 47f
3:50am 5ft 5s 5s 27 31 mph 1015.4mb 46f 46f
2:50am 4ft 5s 4s 25 29 mph 1016.7mb 46f 46f
1:50am 3.5ft 5s 4s 20 25 mph 1018.6mb 47f 46f
12:50am 3ft 6s 4s 18 22 mph 1019.8mb 47f 46f
Sun 04/19 11:50pm 3ft 5s 5s 16 18 mph 1020.9mb 46f 46f
10:50pm 3ft 5s 5s 16 18 mph 1021.2mb 46f 46f
9:50pm 3ft 6s 5s 11 16 mph 1022.5mb 46f 46f
8:50pm 3ft 7s 5s 13
mph
1022.5mb 46f 46f
7:50pm 3ft 6s 4s 13
mph
1022.3mb 46f 46f
6:50pm 3.5ft 6s 4s 13 18 mph 1022.2mb 46f 46f
5:50pm 3.5ft 4s 4s 13 18 mph 1022.8mb 46f 46f
4:50pm 3.5ft 4s 4s 18 20 mph 1022.5mb 46f 46f
3:50pm 3.5ft 7s 4s 18 22 mph 1022.6mb 47f 46f
2:50pm 3ft 4s 4s 20 22 mph 1023.3mb 47f 46f
1:50pm 2.5ft 7s 4s 18 20 mph 1024.2mb 47f 47f
12:50pm 2.5ft 8s 5s 16 20 mph 1024.6mb 46f 47f
11:50am 2ft 7s 5s 13 16 mph 1024.7mb 46f 47f
10:50am 2ft 8s 5s 13 16 mph 1024.7mb 46f 48f
9:50am 2.5ft 8s 5s 11 13 mph 1024.4mb 46f 48f
8:50am 2.5ft 7s 5s 7 9 mph 1024.1mb 46f 48f
7:50am 2.5ft 7s 6s 9
mph
1023.5mb 46f 49f
6:50am 2.5ft 7s 6s 9
mph
1022.3mb 47f 48f
5:50am 2ft 7s 6s 13
mph
1021.1mb 47f 49f
4:50am 2.5ft 13s 6s 11
mph
1020.8mb 47f 49f
3:50am 2.5ft 7s 6s 11 16 mph 1020.1mb 48f 51f
2:50am 2.5ft 12s 7s 13
mph
1018.9mb 48f 54f
1:50am 2.5ft 8s 7s 7
mph
1018.3mb 48f 53f
12:50am 2.5ft 14s 6s 7 9 mph 1018mb 48f 54f
Sat 04/18 11:50pm 2.5ft 8s 6s 9 11 mph 1017.2mb 48f 55f
10:50pm 3ft 14s 5s 7 11 mph 1016mb 48f 63f
9:50pm 3.5ft 7s 5s 4
mph
1014.7mb 48f 57f
8:50pm 3.5ft 4s 4s 18 20 mph 1012.3mb 46f 54f
7:50pm 3.5ft 7s 4s 20 25 mph 1011.7mb 46f 54f
6:50pm 3ft 13s 4s 20 22 mph 1011.4mb 47f 53f
5:50pm 2.5ft 13s 4s 20 22 mph 1011.6mb 47f 54f
4:50pm 2.5ft 12s 5s 18 20 mph 1012mb 48f 54f
3:50pm 2.5ft 11s 6s 13 16 mph 1012.3mb 48f 54f
2:50pm 2.5ft 13s 6s 13
mph
1012.8mb 49f 54f
1:50pm 2.5ft 13s 6s 9 11 mph 1013.9mb 51f 55f
12:50pm 2.5ft 6s 6s 7
mph
1014.7mb 51f 57f
11:50am 2.5ft 7s 6s 4
mph
1015.1mb 49f 59f
10:50am 2.5ft 7s 6s 7
mph
1015.9mb 48f 56f
9:50am 2.5ft 7s 6s 4
mph
1016mb 48f 52f
8:50am 2.5ft 6s 6s 7
mph
1015.7mb 47f 52f
7:50am 2.5ft 6s 6s 2 4 mph 1015.6mb 46f 52f
6:50am 2.5ft 7s 6s 9
mph
1014.9mb 46f 54f
5:50am 2.5ft 6s 6s 7
mph
1014.3mb 47f 55f
4:50am 2.5ft 8s 6s 4 7 mph 1014.4mb 47f 52f
3:50am 2.5ft 9s 6s 4 7 mph 1014.3mb 47f 55f
2:50am 2.5ft 10s 6s 4
mph
1014.2mb 47f 54f
1:50am 3ft 10s 6s 4
mph
1014.6mb 47f 53f
12:50am 2.5ft 7s 6s 4 7 mph 1014.8mb 47f 51f
Fri 04/17 11:50pm 2.5ft 10s 6s 2 4 mph 1014.5mb 47f 52f
10:50pm 3ft 6s 6s 9
mph
1014mb 47f 51f
9:50pm 3ft 6s 6s 4 7 mph 1013.8mb 47f 50f
8:50pm 3ft 9s 6s 11
mph
1013.4mb 47f 52f
7:50pm 3ft 8s 5s 9
mph
1012.8mb 47f 50f
6:50pm 3ft 7s 5s 9 11 mph 1012.7mb 47f 51f
5:50pm 3ft 8s 5s 7 9 mph 1012.8mb 48f 51f
4:50pm 3ft 9s 5s 9
mph
1013.5mb 45f 50f
3:50pm 3ft 9s 5s 9 11 mph 1014mb 45f 49f
2:50pm 3.5ft 9s 5s 11 13 mph 1014.5mb 45f 49f
1:50pm 3ft 10s 5s 13 16 mph 1015.4mb 45f 50f
12:50pm 2.5ft 11s 5s 11 13 mph 1016.3mb 45f 49f